createdAt,value
2023-03-06T00:01:00.697Z,98098.13
2023-03-06T00:03:28.671Z,98092.34
2023-03-06T00:06:00.513Z,98087.09
2023-03-06T00:08:29.331Z,98090.19
2023-03-06T00:10:57.976Z,98086.56
2023-03-06T00:13:27.128Z,98094.47
2023-03-06T00:15:54.824Z,98093.25
2023-03-06T00:18:22.719Z,98092.19
2023-03-06T00:20:50.833Z,98090.44
2023-03-06T00:23:18.510Z,98091.75
2023-03-06T00:25:47.109Z,98086.66
2023-03-06T00:28:16.161Z,98086.78
2023-03-06T00:30:46.091Z,98094.31
2023-03-06T00:33:13.798Z,98092.84
2023-03-06T00:35:41.654Z,98088.69
2023-03-06T00:38:12.003Z,98095.25
2023-03-06T00:40:40.239Z,98092.19
2023-03-06T00:43:08.122Z,98097.94
2023-03-06T00:45:36.233Z,98096.31
2023-03-06T00:48:05.616Z,98091.50
2023-03-06T00:50:34.173Z,98092.06
2023-03-06T00:53:02.088Z,98091.38
2023-03-06T00:55:31.340Z,98092.34
2023-03-06T00:57:59.663Z,98088.69
2023-03-06T01:00:29.153Z,98092.47
2023-03-06T01:02:56.971Z,98092.34
2023-03-06T01:05:24.982Z,98093.78
2023-03-06T01:07:52.665Z,98099.84
2023-03-06T01:10:20.503Z,98095.16
2023-03-06T01:12:48.761Z,98097.44
2023-03-06T01:15:16.790Z,98100.91
2023-03-06T01:17:44.801Z,98095.66
2023-03-06T01:20:16.452Z,98094.75
2023-03-06T01:22:44.247Z,98097.31
2023-03-06T01:25:12.480Z,98097.31
2023-03-06T01:27:40.115Z,98095.66
2023-03-06T01:30:12.238Z,98090.72
2023-03-06T01:32:40.349Z,98095.66
2023-03-06T01:35:08.571Z,98095.66
2023-03-06T01:37:37.569Z,98100.91
2023-03-06T01:40:07.114Z,98103.47
2023-03-06T01:42:34.895Z,98110.28
2023-03-06T01:45:28.306Z,98099.44
2023-03-06T01:47:56.176Z,98099.72
2023-03-06T01:50:24.127Z,98102.25
2023-03-06T01:52:55.948Z,98104.53
2023-03-06T01:55:31.087Z,98106.41
2023-03-06T01:58:03.945Z,98104.66
2023-03-06T02:00:31.998Z,98105.63
2023-03-06T02:03:10.763Z,98104.13
2023-03-06T02:05:40.984Z,98106.81
2023-03-06T02:08:16.481Z,98112.97
2023-03-06T02:11:18.396Z,98119.72
2023-03-06T02:14:08.412Z,98116.50
2023-03-06T02:16:36.109Z,98119.72
2023-03-06T02:19:07.690Z,98107.75
2023-03-06T02:21:37.707Z,98107.06
2023-03-06T02:24:29.933Z,98116.63
2023-03-06T02:26:59.284Z,98119.16
2023-03-06T02:29:30.204Z,98116.19
2023-03-06T02:32:01.486Z,98118.22
2023-03-06T02:34:29.568Z,98120.09
2023-03-06T02:37:03.398Z,98112.97
2023-03-06T02:39:34.301Z,98118.06
2023-03-06T02:42:01.917Z,98104.13
2023-03-06T02:44:34.970Z,98112.97
2023-03-06T02:47:02.687Z,98105.06
2023-03-06T02:49:30.540Z,98105.34
2023-03-06T02:51:58.989Z,98104.28
2023-03-06T02:54:26.754Z,98121.16
2023-03-06T02:56:54.496Z,98120.50
2023-03-06T02:59:22.794Z,98114.19
2023-03-06T03:01:51.218Z,98113.66
2023-03-06T03:04:18.767Z,98108.97
2023-03-06T03:06:46.496Z,98113.50
2023-03-06T03:09:14.325Z,98116.34
2023-03-06T03:11:42.301Z,98119.94
2023-03-06T03:14:10.403Z,98110.97
2023-03-06T03:16:39.207Z,98109.75
2023-03-06T03:19:06.904Z,98108.41
2023-03-06T03:21:34.990Z,98119.72
2023-03-06T03:24:02.639Z,98120.09
2023-03-06T03:26:30.441Z,98107.75
2023-03-06T03:29:05.220Z,98119.72
2023-03-06T03:31:33.229Z,98115.81
2023-03-06T03:34:03.911Z,98121.97
2023-03-06T03:36:35.385Z,98122.38
2023-03-06T03:39:04.210Z,98116.50
2023-03-06T03:41:33.342Z,98116.59
2023-03-06T03:44:04.232Z,98120.09
2023-03-06T03:46:32.894Z,98122.25
2023-03-06T03:49:02.580Z,98127.88
2023-03-06T03:51:30.555Z,98131.50
2023-03-06T03:53:59.315Z,98125.72
2023-03-06T03:56:30.414Z,98122.94
2023-03-06T03:59:03.575Z,98128.81
2023-03-06T04:01:39.706Z,98125.34
2023-03-06T04:04:08.124Z,98123.03
2023-03-06T04:06:36.196Z,98124.94
2023-03-06T04:09:04.913Z,98126.91
2023-03-06T04:11:33.553Z,98124.50
2023-03-06T04:14:02.037Z,98125.03
2023-03-06T04:16:29.709Z,98120.91
2023-03-06T04:18:57.522Z,98132.59
2023-03-06T04:21:25.265Z,98122.13
2023-03-06T04:23:54.800Z,98120.50
2023-03-06T04:26:22.407Z,98121.84
2023-03-06T04:28:49.960Z,98118.63
2023-03-06T04:31:17.802Z,98118.09
2023-03-06T04:33:45.291Z,98116.06
2023-03-06T04:36:34.862Z,98122.50
2023-03-06T04:39:07.195Z,98120.22
2023-03-06T04:41:35.723Z,98115.63
2023-03-06T04:44:03.614Z,98121.94
2023-03-06T04:46:49.733Z,98116.41
2023-03-06T04:49:18.368Z,98127.69
2023-03-06T04:51:46.126Z,98123.78
2023-03-06T04:54:13.778Z,98123.63
2023-03-06T04:56:41.576Z,98120.41
2023-03-06T04:59:09.015Z,98127.41
2023-03-06T05:01:36.818Z,98125.53
2023-03-06T05:04:04.895Z,98133.69
2023-03-06T05:06:32.822Z,98139.22
2023-03-06T05:09:00.198Z,98129.53
2023-03-06T05:11:28.028Z,98134.88
2023-03-06T05:13:55.841Z,98131.16
2023-03-06T05:16:23.503Z,98138.09
2023-03-06T05:18:51.012Z,98143.06
2023-03-06T05:21:18.396Z,98126.66
2023-03-06T05:23:46.097Z,98139.69
2023-03-06T05:26:15.111Z,98137.00
2023-03-06T05:28:42.862Z,98137.03
2023-03-06T05:31:10.860Z,98137.31
2023-03-06T05:33:38.598Z,98138.41
2023-03-06T05:36:09.230Z,98142.44
2023-03-06T05:38:37.033Z,98135.72
2023-03-06T05:41:05.070Z,98146.72
2023-03-06T05:43:32.549Z,98145.56
2023-03-06T05:46:02.755Z,98153.00
2023-03-06T05:48:30.517Z,98150.31
2023-03-06T05:50:59.106Z,98152.72
2023-03-06T05:53:27.146Z,98154.06
2023-03-06T05:56:03.209Z,98156.22
2023-03-06T05:58:32.662Z,98152.09
2023-03-06T06:01:00.844Z,98162.41
2023-03-06T06:03:28.373Z,98156.47
2023-03-06T06:05:56.458Z,98162.78
2023-03-06T06:08:24.069Z,98156.72
2023-03-06T06:10:53.485Z,98155.94
2023-03-06T06:13:21.144Z,98159.69
2023-03-06T06:15:48.754Z,98153.78
2023-03-06T06:18:16.429Z,98154.25
2023-03-06T06:20:43.810Z,98158.09
2023-03-06T06:23:11.680Z,98146.94
2023-03-06T06:25:39.338Z,98155.06
2023-03-06T06:28:07.060Z,98157.72
2023-03-06T06:30:34.828Z,98153.09
2023-03-06T06:33:02.772Z,98158.53
2023-03-06T06:35:30.434Z,98154.72
2023-03-06T06:37:58.148Z,98157.41
2023-03-06T06:40:27.624Z,98160.25
2023-03-06T06:42:55.313Z,98155.00
2023-03-06T06:45:22.912Z,98159.53
2023-03-06T06:47:50.699Z,98167.84
2023-03-06T06:50:18.361Z,98174.53
2023-03-06T06:52:45.953Z,98173.34
2023-03-06T06:55:13.779Z,98176.56
2023-03-06T06:57:42.349Z,98173.56
2023-03-06T07:00:14.033Z,98174.94
2023-03-06T07:02:41.921Z,98178.16
2023-03-06T07:05:10.060Z,98176.56
2023-03-06T07:07:45.085Z,98178.38
2023-03-06T07:10:15.822Z,98173.78
2023-03-06T07:12:45.039Z,98173.78
2023-03-06T07:15:15.070Z,98176.41
2023-03-06T07:17:42.799Z,98170.34
2023-03-06T07:20:11.363Z,98178.25
2023-03-06T07:22:50.230Z,98173.06
2023-03-06T07:25:19.331Z,98175.19
2023-03-06T07:27:52.675Z,98175.31
2023-03-06T07:30:22.936Z,98176.00
2023-03-06T07:32:54.127Z,98174.16
2023-03-06T07:35:22.264Z,98172.03
2023-03-06T07:37:49.946Z,98177.31
2023-03-06T07:40:19.882Z,98182.28
2023-03-06T07:42:47.823Z,98190.84
2023-03-06T07:45:18.536Z,98184.97
2023-03-06T07:47:46.707Z,98184.97
2023-03-06T07:50:14.117Z,98194.84
2023-03-06T07:53:22.065Z,98196.66
2023-03-06T07:55:49.834Z,98190.81
2023-03-06T07:58:17.624Z,98197.31
2023-03-06T08:00:45.144Z,98194.66
2023-03-06T08:03:13.522Z,98192.84
2023-03-06T08:05:41.732Z,98204.31
2023-03-06T08:08:09.459Z,98196.88
2023-03-06T08:10:37.336Z,98203.09
2023-03-06T08:13:06.095Z,98202.56
2023-03-06T08:15:34.151Z,98200.63
2023-03-06T08:18:04.389Z,98194.41
2023-03-06T08:20:34.223Z,98200.34
2023-03-06T08:23:04.650Z,98200.69
2023-03-06T08:25:32.400Z,98202.34
2023-03-06T08:28:00.739Z,98197.88
2023-03-06T08:30:30.149Z,98198.69
2023-03-06T08:32:57.757Z,98196.13
2023-03-06T08:35:25.266Z,98197.22
2023-03-06T08:37:52.911Z,98192.09
2023-03-06T08:40:23.269Z,98201.00
2023-03-06T08:42:51.030Z,98198.75
2023-03-06T08:45:18.660Z,98194.38
2023-03-06T08:47:46.990Z,98196.34
2023-03-06T08:50:14.701Z,98204.72
2023-03-06T08:52:42.070Z,98196.19
2023-03-06T08:55:10.180Z,98208.97
2023-03-06T08:57:37.759Z,98207.91
2023-03-06T09:00:09.175Z,98210.47
2023-03-06T09:02:36.841Z,98204.72
2023-03-06T09:05:07.822Z,98214.00
2023-03-06T09:07:36.281Z,98217.41
2023-03-06T09:10:08.015Z,98211.50
2023-03-06T09:12:49.840Z,98213.50
2023-03-06T09:15:20.954Z,98225.19
2023-03-06T09:17:48.771Z,98218.78
2023-03-06T09:20:17.652Z,98221.50
2023-03-06T09:22:48.259Z,98220.72
2023-03-06T09:25:25.446Z,98222.66
2023-03-06T09:28:10.434Z,98225.16
2023-03-06T09:30:41.370Z,98223.72
2023-03-06T09:33:36.898Z,98224.38
2023-03-06T09:36:07.232Z,98226.47
2023-03-06T09:38:39.440Z,98227.28
2023-03-06T09:41:26.698Z,98230.50
2023-03-06T09:44:33.419Z,98219.56
2023-03-06T09:47:44.766Z,98235.13
2023-03-06T09:50:29.624Z,98234.34
2023-03-06T09:53:34.331Z,98235.00
2023-03-06T09:59:24.870Z,98236.75
2023-03-06T10:02:10.247Z,98237.25
2023-03-06T10:04:46.616Z,98234.03
2023-03-06T10:07:45.043Z,98238.69
2023-03-06T10:10:42.127Z,98239.66
2023-03-06T10:13:38.503Z,98240.63
2023-03-06T10:16:32.922Z,98242.06
2023-03-06T10:19:11.903Z,98244.94
2023-03-06T10:21:47.676Z,98245.56
2023-03-06T10:24:25.279Z,98233.66
2023-03-06T10:27:04.118Z,98227.78
2023-03-06T10:30:01.266Z,98226.72
2023-03-06T10:32:59.227Z,98230.22
2023-03-06T10:35:53.536Z,98220.66
2023-03-06T10:38:42.822Z,98231.09
2023-03-06T10:41:33.193Z,98224.50
2023-03-06T10:44:09.474Z,98237.31
2023-03-06T10:47:01.285Z,98226.91
2023-03-06T10:49:39.170Z,98229.09
2023-03-06T10:52:26.056Z,98229.59
2023-03-06T10:55:23.809Z,98225.53
2023-03-06T10:57:57.000Z,98233.94
2023-03-06T11:00:36.121Z,98239.63
2023-03-06T11:03:17.671Z,98238.94
2023-03-06T11:06:06.651Z,98236.06
2023-03-06T11:08:35.804Z,98243.38
2023-03-06T11:11:18.572Z,98234.84
2023-03-06T11:13:58.976Z,98237.19
2023-03-06T11:16:30.649Z,98247.13
2023-03-06T11:19:01.543Z,98242.94
2023-03-06T11:21:35.276Z,98245.28
2023-03-06T11:24:20.049Z,98241.16
2023-03-06T11:26:54.804Z,98237.78
2023-03-06T11:29:38.921Z,98243.59
2023-03-06T11:32:21.688Z,98237.16
2023-03-06T11:34:52.625Z,98254.41
2023-03-06T11:37:32.364Z,98249.53
2023-03-06T11:40:15.383Z,98248.50
2023-03-06T11:42:49.893Z,98250.38
2023-03-06T11:45:37.613Z,98251.00
2023-03-06T11:48:14.401Z,98246.44
2023-03-06T11:50:54.120Z,98249.06
2023-03-06T11:53:26.753Z,98244.00
2023-03-06T11:56:09.773Z,98249.84
2023-03-06T11:59:19.070Z,98244.66
2023-03-06T12:02:06.563Z,98247.91
2023-03-06T12:04:40.338Z,98251.38
2023-03-06T12:07:10.970Z,98257.47
2023-03-06T12:09:55.161Z,98254.72
2023-03-06T12:12:41.633Z,98261.97
2023-03-06T12:15:23.579Z,98262.78
2023-03-06T12:17:59.484Z,98259.56
2023-03-06T12:20:55.587Z,98270.63
2023-03-06T12:23:23.890Z,98268.72
2023-03-06T12:26:02.055Z,98260.84
2023-03-06T12:28:50.568Z,98266.75
2023-03-06T12:32:01.299Z,98274.84
2023-03-06T12:34:46.274Z,98287.38
2023-03-06T12:37:29.743Z,98289.56
2023-03-06T12:40:06.887Z,98296.63
2023-03-06T12:42:51.438Z,98288.28
2023-03-06T12:45:37.519Z,98295.81
2023-03-06T12:48:11.316Z,98292.38
2023-03-06T12:50:40.298Z,98289.81
2023-03-06T12:53:27.559Z,98275.28
2023-03-06T12:55:57.702Z,98281.16
2023-03-06T12:58:51.150Z,98286.59
2023-03-06T13:01:41.489Z,98288.09
2023-03-06T13:04:30.997Z,98287.81
2023-03-06T13:07:15.303Z,98296.16
2023-03-06T13:10:14.524Z,98303.69
2023-03-06T13:13:05.432Z,98304.56
2023-03-06T13:15:41.177Z,98298.28
2023-03-06T13:18:24.570Z,98313.38
2023-03-06T13:20:57.019Z,98304.88
2023-03-06T13:23:35.250Z,98321.03
2023-03-06T13:26:08.721Z,98311.25
2023-03-06T13:28:58.391Z,98306.97
2023-03-06T13:31:32.407Z,98308.44
